Dades meteomassalio
Diari Summary for Febrer 3, 2018 Units:  English    Metric   Both
« Previous Day
Next Day »
Diari Semanal Mensual Anual Personalitzat
  Maxima: Minima: Mijana:
Temperatura: TemperatureC °F 2.2 °F 6.5 °F
Rosada: DewpointC °F -1.2 °F 0.3 °F
Humitat: Humidity % 49 % 65 %
Velocitat del vent: WindSpeedKMH mph 9.3 mph 29.5 mph
Racha vent: WindSpeedGustKMH mph - -
Vent:- - NW
Pressio: PressurehPa in 1014.8 in -
Pluja: 0.0 in    
Historical Graphs
 
 
Tabular Data for Febrer 3, 2018
Time Temperature Dew Point Pressure Wind Wind Speed Wind Gust Humidity Rainfall Rate (Hourly) solar Conditions
TemperatureC °F DewpointC °F PressurehPa in Calm     Humidity % HourlyPrecipMM in SolarRadiationWatts/m^2 W/m2 Conditions
00:01 2.8 °F -0.7 °F 1017.2 in NW 27.8 mph 27.8 mph 78 % 0.0 in 0.0 W/m2 CLR
00:06 2.8 °F -0.7 °F 1017.2 in NW 22.5 mph 22.5 mph 78 % 0.0 in 0.0 W/m2 CLR
00:11 2.8 °F -0.7 °F 1017.2 in North 24.1 mph 24.1 mph 78 % 0.0 in 0.0 W/m2 CLR
00:16 2.8 °F -0.7 °F 1017.2 in NW 25.7 mph 25.7 mph 78 % 0.0 in 0.0 W/m2 CLR
00:26 2.8 °F -0.7 °F 1017.2 in NW 25.9 mph 25.9 mph 78 % 0.0 in 0.0 W/m2 CLR
00:31 2.8 °F -0.7 °F 1017.2 in NNW 25.9 mph 25.9 mph 78 % 0.0 in 0.0 W/m2 CLR
00:36 2.8 °F -0.7 °F 1017.2 in NNW 24.1 mph 24.1 mph 78 % 0.0 in 0.0 W/m2 CLR
00:41 2.8 °F -0.5 °F 1017.2 in NW 22.2 mph 22.2 mph 79 % 0.0 in 0.0 W/m2 CLR
00:46 2.2 °F -1.1 °F 1017.2 in WNW 25.9 mph 25.9 mph 79 % 0.0 in 0.0 W/m2 CLR
00:51 2.2 °F -1.2 °F 1017.2 in NNW 22.2 mph 22.2 mph 78 % 0.0 in 0.0 W/m2 CLR
00:56 2.2 °F -1.1 °F 1017.2 in NNW 32.2 mph 32.2 mph 79 % 0.0 in 0.0 W/m2 CLR
01:01 2.8 °F -0.5 °F 1017.2 in NW 22.5 mph 22.5 mph 79 % 0.0 in 0.0 W/m2 CLR
01:06 2.2 °F -1.1 °F 1016.8 in NW 20.9 mph 20.9 mph 79 % 0.0 in 0.0 W/m2 CLR
01:11 2.8 °F -0.7 °F 1016.8 in North 35.2 mph 35.2 mph 78 % 0.0 in 0.0 W/m2 CLR
01:16 2.8 °F -0.7 °F 1016.8 in NNW 29.6 mph 29.6 mph 78 % 0.0 in 0.0 W/m2 CLR
01:21 2.8 °F -0.7 °F 1016.8 in North 41.8 mph 41.8 mph 78 % 0.0 in 0.0 W/m2 CLR
01:26 2.8 °F -0.7 °F 1016.8 in NNW 35.2 mph 35.2 mph 78 % 0.0 in 0.0 W/m2 CLR
01:31 2.8 °F -0.7 °F 1016.8 in NNW 33.3 mph 33.3 mph 78 % 0.0 in 0.0 W/m2 CLR
01:36 2.8 °F -0.5 °F 1016.8 in NW 29.6 mph 29.6 mph 79 % 0.0 in 0.0 W/m2 CLR
01:41 2.8 °F -0.5 °F 1016.8 in NNW 38.9 mph 38.9 mph 79 % 0.0 in 0.0 W/m2 CLR
01:46 2.8 °F -0.7 °F 1016.8 in NW 35.2 mph 35.2 mph 78 % 0.0 in 0.0 W/m2 CLR
01:51 2.8 °F -0.7 °F 1016.8 in NNW 31.5 mph 31.5 mph 78 % 0.0 in 0.0 W/m2 CLR
01:56 2.8 °F -0.7 °F 1017.2 in NNW 35.2 mph 35.2 mph 78 % 0.0 in 0.0 W/m2 CLR
02:01 2.8 °F -0.7 °F 1016.8 in NW 37.0 mph 37.0 mph 78 % 0.0 in 0.0 W/m2 CLR
02:06 2.8 °F -0.7 °F 1017.2 in NNW 40.7 mph 40.7 mph 78 % 0.0 in 0.0 W/m2 CLR
02:11 2.8 °F -0.7 °F 1016.8 in NW 46.3 mph 46.3 mph 78 % 0.0 in 0.0 W/m2 CLR
02:16 2.8 °F -0.8 °F 1017.2 in North 35.4 mph 35.4 mph 77 % 0.0 in 0.0 W/m2 CLR
02:21 3.3 °F -0.3 °F 1017.2 in North 33.3 mph 33.3 mph 77 % 0.0 in 0.0 W/m2 CLR
02:26 2.8 °F -1.1 °F 1017.2 in NNW 42.6 mph 42.6 mph 76 % 0.0 in 0.0 W/m2 CLR
02:31 3.3 °F -0.7 °F 1017.2 in NW 35.2 mph 35.2 mph 75 % 0.0 in 0.0 W/m2 CLR
02:36 3.3 °F -0.7 °F 1017.5 in NNW 38.9 mph 38.9 mph 75 % 0.0 in 0.0 W/m2 CLR
02:41 3.3 °F -0.7 °F 1017.5 in NNW 30.6 mph 30.6 mph 75 % 0.0 in 0.0 W/m2 CLR
02:47 3.3 °F -0.7 °F 1017.5 in NNW 25.9 mph 25.9 mph 75 % 0.0 in 0.0 W/m2 CLR
02:52 3.3 °F -0.7 °F 1017.5 in NW 25.9 mph 25.9 mph 75 % 0.0 in 0.0 W/m2 CLR
02:57 3.3 °F -0.5 °F 1017.5 in NW 25.9 mph 25.9 mph 76 % 0.0 in 0.0 W/m2 CLR
03:02 3.3 °F -0.5 °F 1017.5 in NW 24.1 mph 24.1 mph 76 % 0.0 in 0.0 W/m2 CLR
03:07 3.3 °F -0.5 °F 1017.5 in NW 29.6 mph 29.6 mph 76 % 0.0 in 0.0 W/m2 CLR
03:12 3.3 °F -0.3 °F 1017.5 in NNW 40.7 mph 40.7 mph 77 % 0.0 in 0.0 W/m2 CLR
03:17 3.3 °F -0.3 °F 1017.5 in NNW 33.3 mph 33.3 mph 77 % 0.0 in 0.0 W/m2 CLR
03:22 3.3 °F -0.2 °F 1017.5 in NNW 42.6 mph 42.6 mph 78 % 0.0 in 0.0 W/m2 CLR
03:27 3.3 °F -0.2 °F 1017.2 in North 35.2 mph 35.2 mph 78 % 0.0 in 0.0 W/m2 CLR
03:32 3.3 °F -0.2 °F 1017.2 in NW 37.0 mph 37.0 mph 78 % 0.0 in 0.0 W/m2 CLR
03:37 3.3 °F -0.3 °F 1017.2 in NNW 38.9 mph 38.9 mph 77 % 0.0 in 0.0 W/m2 CLR
03:42 3.3 °F -0.3 °F 1017.2 in NNW 42.6 mph 42.6 mph 77 % 0.0 in 0.0 W/m2 CLR
03:47 3.3 °F -0.3 °F 1017.5 in NNW 35.2 mph 35.2 mph 77 % 0.0 in 0.0 W/m2 CLR
03:52 3.3 °F -0.3 °F 1017.5 in NNW 30.6 mph 30.6 mph 77 % 0.0 in 0.0 W/m2 CLR
03:57 3.3 °F -0.5 °F 1017.5 in NNW 37.0 mph 37.0 mph 76 % 0.0 in 0.0 W/m2 CLR
04:02 3.3 °F -0.5 °F 1017.2 in NNW 25.9 mph 25.9 mph 76 % 0.0 in 0.0 W/m2 CLR
04:07 3.3 °F -0.7 °F 1017.2 in NNW 37.0 mph 37.0 mph 75 % 0.0 in 0.0 W/m2 CLR
04:12 3.3 °F -0.7 °F 1017.2 in NNW 31.5 mph 31.5 mph 75 % 0.0 in 0.0 W/m2 CLR
04:17 3.3 °F -0.7 °F 1017.2 in NNW 35.4 mph 35.4 mph 75 % 0.0 in 0.0 W/m2 CLR
04:22 3.3 °F -0.5 °F 1017.2 in NW 38.9 mph 38.9 mph 76 % 0.0 in 0.0 W/m2 CLR
04:27 3.3 °F -0.7 °F 1017.2 in NNW 40.7 mph 40.7 mph 75 % 0.0 in 0.0 W/m2 CLR
04:32 3.3 °F -0.7 °F 1017.2 in North 25.9 mph 25.9 mph 75 % 0.0 in 0.0 W/m2 CLR
04:37 3.3 °F -0.5 °F 1017.2 in NW 37.0 mph 37.0 mph 76 % 0.0 in 0.0 W/m2 CLR
04:42 3.3 °F -0.7 °F 1017.2 in NW 32.2 mph 32.2 mph 75 % 0.0 in 0.0 W/m2 CLR
04:47 3.3 °F -0.7 °F 1017.5 in NW 31.5 mph 31.5 mph 75 % 0.0 in 0.0 W/m2 CLR
04:52 3.3 °F -0.7 °F 1017.5 in North 40.7 mph 40.7 mph 75 % 0.0 in 0.0 W/m2 CLR
04:57 3.3 °F -0.9 °F 1017.2 in NW 27.8 mph 27.8 mph 74 % 0.0 in 0.0 W/m2 CLR
05:02 3.3 °F -0.9 °F 1017.2 in NNW 35.4 mph 35.4 mph 74 % 0.0 in 0.0 W/m2 CLR
05:07 3.3 °F -0.7 °F 1017.2 in NNW 37.0 mph 37.0 mph 75 % 0.0 in 0.0 W/m2 CLR
05:12 3.3 °F -0.7 °F 1017.5 in NNW 42.6 mph 42.6 mph 75 % 0.0 in 0.0 W/m2 CLR
05:17 3.3 °F -0.7 °F 1017.5 in NNW 33.3 mph 33.3 mph 75 % 0.0 in 0.0 W/m2 CLR
05:22 3.3 °F -0.5 °F 1017.5 in NNW 38.6 mph 38.6 mph 76 % 0.0 in 0.0 W/m2 CLR
05:27 3.3 °F -0.3 °F 1017.5 in NNW 29.6 mph 29.6 mph 77 % 0.0 in 0.0 W/m2 CLR
05:32 3.3 °F -0.3 °F 1017.5 in NW 42.6 mph 42.6 mph 77 % 0.0 in 0.0 W/m2 CLR
05:37 3.3 °F -0.3 °F 1017.5 in North 40.7 mph 40.7 mph 77 % 0.0 in 0.0 W/m2 CLR
05:42 3.3 °F -0.5 °F 1017.5 in NNW 37.0 mph 37.0 mph 76 % 0.0 in 0.0 W/m2 CLR
05:47 3.3 °F -0.5 °F 1017.2 in NNW 37.0 mph 37.0 mph 76 % 0.0 in 0.0 W/m2 CLR
05:52 3.3 °F -0.7 °F 1017.5 in NNW 42.6 mph 42.6 mph 75 % 0.0 in 0.0 W/m2 CLR
05:57 3.3 °F -0.7 °F 1017.5 in NNW 37.0 mph 37.0 mph 75 % 0.0 in 0.0 W/m2 CLR
06:02 3.3 °F -0.7 °F 1017.5 in NW 35.2 mph 35.2 mph 75 % 0.0 in 0.0 W/m2 CLR
06:07 3.3 °F -0.7 °F 1017.5 in North 37.0 mph 37.0 mph 75 % 0.0 in 0.0 W/m2 CLR
06:12 3.3 °F -0.7 °F 1017.8 in NW 29.6 mph 29.6 mph 75 % 0.0 in 0.0 W/m2 CLR
06:17 3.3 °F -0.7 °F 1017.8 in NW 25.9 mph 25.9 mph 75 % 0.0 in 0.0 W/m2 CLR
06:22 3.3 °F -0.7 °F 1017.8 in NNW 33.8 mph 33.8 mph 75 % 0.0 in 0.0 W/m2 CLR
06:27 3.3 °F -0.7 °F 1017.8 in NNW 25.7 mph 25.7 mph 75 % 0.0 in 0.0 W/m2 CLR
06:32 3.3 °F -0.5 °F 1017.8 in NW 29.6 mph 29.6 mph 76 % 0.0 in 0.0 W/m2 CLR
06:37 3.3 °F -0.5 °F 1017.8 in North 25.7 mph 25.7 mph 76 % 0.0 in 0.0 W/m2 CLR
06:42 3.3 °F -0.5 °F 1017.8 in NW 31.5 mph 31.5 mph 76 % 0.0 in 0.0 W/m2 CLR
06:47 3.3 °F -0.7 °F 1017.8 in NW 31.5 mph 31.5 mph 75 % 0.0 in 0.0 W/m2 CLR
06:52 3.3 °F -0.7 °F 1017.8 in NNW 31.5 mph 31.5 mph 75 % 0.0 in 0.0 W/m2 CLR
06:57 3.3 °F -0.7 °F 1017.8 in NNW 33.3 mph 33.3 mph 75 % 0.0 in 0.0 W/m2 CLR
07:02 3.3 °F -0.7 °F 1017.8 in NW 30.6 mph 30.6 mph 75 % 0.0 in 0.0 W/m2 CLR
07:07 3.3 °F -0.7 °F 1017.8 in NNW 31.5 mph 31.5 mph 75 % 0.0 in 0.0 W/m2 CLR
07:12 3.3 °F -0.7 °F 1018.2 in NNW 32.2 mph 32.2 mph 75 % 0.0 in 0.0 W/m2 CLR
07:17 3.3 °F -0.7 °F 1017.8 in NNW 33.3 mph 33.3 mph 75 % 0.0 in 0.0 W/m2 CLR
07:22 3.3 °F -0.7 °F 1017.8 in NNW 37.0 mph 37.0 mph 75 % 0.0 in 0.0 W/m2 CLR
07:27 3.3 °F -0.9 °F 1017.8 in North 43.4 mph 43.4 mph 74 % 0.0 in 0.0 W/m2 CLR
07:32 3.9 °F -0.3 °F 1017.8 in NNW 40.7 mph 40.7 mph 74 % 0.0 in 0.0 W/m2 CLR
07:37 3.9 °F -0.3 °F 1018.2 in NW 29.6 mph 29.6 mph 74 % 0.0 in 0.0 W/m2 CLR
07:42 3.9 °F -0.2 °F 1018.2 in NW 35.2 mph 35.2 mph 75 % 0.0 in 0.0 W/m2 CLR
07:47 3.9 °F -0.3 °F 1018.2 in NW 44.4 mph 44.4 mph 74 % 0.0 in 0.0 W/m2 CLR
07:52 3.9 °F -0.3 °F 1018.5 in NNW 37.0 mph 37.0 mph 74 % 0.0 in 0.0 W/m2 CLR
07:57 3.9 °F -0.3 °F 1018.5 in NW 31.5 mph 31.5 mph 74 % 0.0 in 0.0 W/m2 CLR
08:02 3.9 °F -0.3 °F 1018.5 in NW 31.5 mph 31.5 mph 74 % 0.0 in 0.0 W/m2 OVC
08:07 3.9 °F -0.5 °F 1018.5 in NW 31.5 mph 31.5 mph 73 % 0.0 in 5.0 W/m2 OVC
08:12 3.9 °F -0.5 °F 1018.5 in NW 25.9 mph 25.9 mph 73 % 0.0 in 7.0 W/m2 OVC
08:17 3.9 °F -0.5 °F 1018.5 in NW 25.9 mph 25.9 mph 73 % 0.0 in 11.0 W/m2 BKN
08:22 3.9 °F -0.3 °F 1018.5 in WNW 25.9 mph 25.9 mph 74 % 0.0 in 12.0 W/m2 BKN
08:27 3.9 °F -0.5 °F 1018.5 in NNW 20.4 mph 20.4 mph 73 % 0.0 in 19.0 W/m2 BKN
08:33 3.9 °F -0.5 °F 1018.5 in NNW 20.4 mph 20.4 mph 73 % 0.0 in 26.0 W/m2 BKN
08:38 3.9 °F -0.7 °F 1018.5 in NNW 25.9 mph 25.9 mph 72 % 0.0 in 30.0 W/m2 BKN
08:43 3.9 °F -0.9 °F 1018.5 in North 20.9 mph 20.9 mph 71 % 0.0 in 35.0 W/m2 BKN
08:48 3.9 °F -0.9 °F 1018.5 in NW 33.3 mph 33.3 mph 71 % 0.0 in 28.0 W/m2 BKN
08:53 4.4 °F -0.3 °F 1018.5 in NNW 16.1 mph 16.1 mph 71 % 0.0 in 33.0 W/m2 BKN
08:58 4.4 °F -0.6 °F 1018.5 in NNW 19.3 mph 19.3 mph 70 % 0.0 in 30.0 W/m2 BKN
09:03 4.4 °F -0.8 °F 1018.8 in NW 24.1 mph 24.1 mph 69 % 0.0 in 28.0 W/m2 BKN
09:08 4.4 °F -0.8 °F 1018.8 in NNW 19.3 mph 19.3 mph 69 % 0.0 in 33.0 W/m2 BKN
09:13 4.4 °F -0.8 °F 1018.8 in NW 16.7 mph 16.9 mph 69 % 0.0 in 35.0 W/m2 BKN
09:18 4.4 °F -0.8 °F 1018.8 in WNW 22.2 mph 22.2 mph 69 % 0.0 in 35.0 W/m2 BKN
09:23 4.4 °F -0.9 °F 1018.8 in NW 27.8 mph 27.8 mph 68 % 0.0 in 33.0 W/m2 BKN
09:28 4.4 °F -0.9 °F 1018.8 in NW 25.9 mph 25.9 mph 68 % 0.0 in 46.0 W/m2 BKN
09:33 4.4 °F -0.8 °F 1018.8 in WNW 18.5 mph 18.5 mph 69 % 0.0 in 49.0 W/m2 BKN
09:38 4.4 °F -0.8 °F 1018.8 in NW 18.5 mph 18.5 mph 69 % 0.0 in 69.0 W/m2 SCT
09:43 4.4 °F -0.8 °F 1019.2 in NW 18.5 mph 18.5 mph 69 % 0.0 in 58.0 W/m2 SCT
09:48 4.4 °F -0.8 °F 1019.2 in NW 16.7 mph 16.7 mph 69 % 0.0 in 120.0 W/m2 FEW
09:53 5.0 °F -0.4 °F 1019.2 in NNW 22.2 mph 22.2 mph 68 % 0.0 in 105.0 W/m2 CLR
09:58 5.0 °F -0.4 °F 1018.8 in NW 27.8 mph 27.8 mph 68 % 0.0 in 132.0 W/m2 CLR
10:03 5.6 °F 0.1 °F 1018.8 in NW 31.5 mph 31.5 mph 68 % 0.0 in 355.0 W/m2 CLR
10:08 6.1 °F 0.4 °F 1018.8 in NNW 27.8 mph 27.8 mph 67 % 0.0 in 128.0 W/m2 CLR
10:13 6.1 °F 0.4 °F 1018.8 in NNW 37.0 mph 37.0 mph 67 % 0.0 in 148.0 W/m2 CLR
10:18 6.1 °F 0.4 °F 1018.8 in NW 27.8 mph 27.8 mph 67 % 0.0 in 69.0 W/m2 CLR
10:23 6.1 °F 0.7 °F 1018.8 in North 37.0 mph 37.0 mph 68 % 0.0 in 336.0 W/m2 FEW
10:28 6.1 °F 0.4 °F 1018.8 in North 37.0 mph 37.0 mph 67 % 0.0 in 338.0 W/m2 CLR
10:33 6.7 °F 0.8 °F 1018.5 in North 38.9 mph 38.9 mph 66 % 0.0 in 346.0 W/m2 CLR
10:38 7.2 °F 1.3 °F 1018.5 in North 42.6 mph 42.6 mph 66 % 0.0 in 359.0 W/m2 CLR
10:43 7.2 °F 1.1 °F 1018.5 in NNW 40.7 mph 40.7 mph 65 % 0.0 in 371.0 W/m2 CLR
10:48 7.2 °F 0.8 °F 1018.5 in NNW 44.4 mph 44.4 mph 64 % 0.0 in 381.0 W/m2 CLR
10:53 7.8 °F 1.4 °F 1018.5 in NNW 42.6 mph 42.6 mph 64 % 0.0 in 394.0 W/m2 CLR
10:58 7.8 °F 1.2 °F 1018.5 in North 44.4 mph 44.4 mph 63 % 0.0 in 408.0 W/m2 CLR
11:03 7.8 °F 1.2 °F 1018.5 in NNW 53.7 mph 53.7 mph 63 % 0.0 in 390.0 W/m2 CLR
11:08 7.8 °F 1.2 °F 1018.5 in NNW 40.7 mph 40.7 mph 63 % 0.0 in 390.0 W/m2 CLR
11:13 7.8 °F 1.2 °F 1018.5 in NNW 40.7 mph 40.7 mph 63 % 0.0 in 432.0 W/m2 CLR
11:18 7.8 °F 1.2 °F 1018.5 in North 51.8 mph 51.8 mph 63 % 0.0 in 445.0 W/m2 CLR
11:23 7.8 °F 0.9 °F 1018.5 in NNW 48.1 mph 48.1 mph 62 % 0.0 in 452.0 W/m2 CLR
11:28 8.3 °F 1.4 °F 1018.5 in NNW 44.4 mph 44.4 mph 62 % 0.0 in 462.0 W/m2 CLR
11:33 8.3 °F 1.2 °F 1018.5 in NW 42.6 mph 42.6 mph 61 % 0.0 in 434.0 W/m2 CLR
11:38 8.3 °F 1.2 °F 1018.5 in NNW 27.4 mph 27.4 mph 61 % 0.0 in 439.0 W/m2 CLR
11:43 8.3 °F 1.4 °F 1018.8 in NNW 37.0 mph 37.0 mph 62 % 0.0 in 188.0 W/m2 CLR
11:48 7.8 °F 0.7 °F 1018.8 in NW 29.6 mph 29.6 mph 61 % 0.0 in 172.0 W/m2 CLR
11:53 7.8 °F 0.7 °F 1018.8 in NNW 33.3 mph 33.3 mph 61 % 0.0 in 188.0 W/m2 CLR
11:58 7.8 °F 0.5 °F 1018.5 in NW 37.0 mph 37.0 mph 60 % 0.0 in 176.0 W/m2 CLR
12:03 7.8 °F 0.7 °F 1018.5 in NW 46.3 mph 46.3 mph 61 % 0.0 in 172.0 W/m2 CLR
12:08 7.8 °F 0.9 °F 1018.8 in NW 31.5 mph 31.5 mph 62 % 0.0 in 181.0 W/m2 CLR
12:13 7.8 °F 0.9 °F 1018.8 in NNW 37.0 mph 37.0 mph 62 % 0.0 in 169.0 W/m2 CLR
12:18 7.8 °F 0.7 °F 1018.8 in NW 40.7 mph 40.7 mph 61 % 0.0 in 155.0 W/m2 CLR
12:23 7.8 °F 0.5 °F 1018.8 in NNW 33.3 mph 33.3 mph 60 % 0.0 in 192.0 W/m2 CLR
12:28 8.3 °F 1.0 °F 1018.5 in NW 33.3 mph 33.3 mph 60 % 0.0 in 250.0 W/m2 CLR
12:33 8.3 °F 1.2 °F 1018.5 in NNW 32.2 mph 32.2 mph 61 % 0.0 in 311.0 W/m2 CLR
12:38 8.9 °F 1.3 °F 1018.5 in NW 40.7 mph 40.7 mph 59 % 0.0 in 473.0 W/m2 CLR
12:43 10.0 °F 2.1 °F 1018.5 in NNW 46.3 mph 46.3 mph 58 % 0.0 in 807.0 W/m2 CLR
12:48 10.6 °F 2.1 °F 1018.5 in NNW 42.6 mph 42.6 mph 56 % 0.0 in 791.0 W/m2 CLR
12:53 10.0 °F 1.9 °F 1018.5 in NNW 25.7 mph 25.7 mph 57 % 0.0 in 367.0 W/m2 CLR
12:58 10.0 °F 1.6 °F 1018.5 in NNW 42.6 mph 42.6 mph 56 % 0.0 in 534.0 W/m2 CLR
13:03 10.6 °F 1.6 °F 1018.2 in North 44.4 mph 44.4 mph 54 % 0.0 in 429.0 W/m2 CLR
13:08 10.6 °F 1.9 °F 1018.2 in North 37.0 mph 37.0 mph 55 % 0.0 in 415.0 W/m2 CLR
13:13 10.6 °F 1.9 °F 1018.2 in NNW 48.3 mph 48.3 mph 55 % 0.0 in 346.0 W/m2 CLR
13:18 10.0 °F 1.6 °F 1018.2 in NNW 35.2 mph 35.2 mph 56 % 0.0 in 297.0 W/m2 CLR
13:23 9.4 °F 1.3 °F 1018.2 in NW 44.4 mph 44.4 mph 57 % 0.0 in 320.0 W/m2 CLR
13:28 9.4 °F 1.3 °F 1018.2 in NNW 37.0 mph 37.0 mph 57 % 0.0 in 313.0 W/m2 CLR
13:33 9.4 °F 1.6 °F 1017.8 in NNW 35.2 mph 35.2 mph 58 % 0.0 in 294.0 W/m2 CLR
13:38 9.4 °F 1.6 °F 1017.8 in North 37.0 mph 37.0 mph 58 % 0.0 in 330.0 W/m2 CLR
13:43 9.4 °F 1.1 °F 1017.5 in NNW 42.6 mph 42.6 mph 56 % 0.0 in 301.0 W/m2 CLR
13:48 9.4 °F 1.3 °F 1017.2 in North 31.5 mph 31.5 mph 57 % 0.0 in 306.0 W/m2 CLR
13:53 9.4 °F 0.8 °F 1017.2 in NW 38.9 mph 38.9 mph 55 % 0.0 in 323.0 W/m2 CLR
13:58 9.4 °F 1.1 °F 1017.2 in NNW 33.3 mph 33.3 mph 56 % 0.0 in 308.0 W/m2 CLR
14:03 10.0 °F 1.1 °F 1017.2 in NNW 44.4 mph 44.4 mph 54 % 0.0 in 355.0 W/m2 CLR
14:08 10.0 °F 0.8 °F 1016.8 in NW 42.6 mph 42.6 mph 53 % 0.0 in 376.0 W/m2 CLR
14:13 10.0 °F 0.6 °F 1016.8 in North 40.7 mph 40.7 mph 52 % 0.0 in 373.0 W/m2 CLR
14:19 10.0 °F 0.8 °F 1016.5 in NNW 51.8 mph 51.8 mph 53 % 0.0 in 568.0 W/m2 CLR
14:24 10.6 °F 1.1 °F 1016.5 in North 50.0 mph 50.0 mph 52 % 0.0 in 543.0 W/m2 CLR
14:29 10.6 °F 1.1 °F 1016.5 in NW 44.4 mph 44.4 mph 52 % 0.0 in 492.0 W/m2 CLR
14:34 10.6 °F 0.8 °F 1016.5 in NNW 45.1 mph 45.1 mph 51 % 0.0 in 540.0 W/m2 CLR
14:39 10.6 °F 0.6 °F 1016.5 in North 38.9 mph 38.9 mph 50 % 0.0 in 543.0 W/m2 CLR
14:44 10.6 °F 0.8 °F 1016.5 in North 42.6 mph 42.6 mph 51 % 0.0 in 540.0 W/m2 CLR
14:49 11.1 °F 1.6 °F 1016.1 in NW 33.3 mph 33.3 mph 52 % 0.0 in 522.0 W/m2 CLR
14:54 11.1 °F 1.3 °F 1016.1 in NNW 37.0 mph 37.0 mph 51 % 0.0 in 496.0 W/m2 CLR
14:59 11.1 °F 1.6 °F 1016.1 in NNW 37.0 mph 37.0 mph 52 % 0.0 in 483.0 W/m2 CLR
15:04 10.6 °F 0.8 °F 1016.1 in North 35.2 mph 35.2 mph 51 % 0.0 in 473.0 W/m2 CLR
15:09 11.1 °F 1.6 °F 1016.1 in NNW 29.0 mph 29.0 mph 52 % 0.0 in 469.0 W/m2 CLR
15:14 11.1 °F 1.6 °F 1016.1 in NW 29.0 mph 29.0 mph 52 % 0.0 in 459.0 W/m2 CLR
15:19 11.7 °F 1.8 °F 1016.1 in North 31.5 mph 31.5 mph 51 % 0.0 in 418.0 W/m2 CLR
15:24 11.1 °F 1.1 °F 1016.1 in NNW 27.4 mph 27.4 mph 50 % 0.0 in 401.0 W/m2 CLR
15:29 11.1 °F 1.1 °F 1016.1 in North 38.9 mph 38.9 mph 50 % 0.0 in 294.0 W/m2 CLR
15:34 11.1 °F 1.3 °F 1016.1 in NNW 40.7 mph 40.7 mph 51 % 0.0 in 294.0 W/m2 CLR
15:39 11.1 °F 1.3 °F 1016.1 in NNW 27.8 mph 27.8 mph 51 % 0.0 in 178.0 W/m2 CLR
15:44 10.6 °F 0.8 °F 1016.1 in NNW 33.3 mph 33.3 mph 51 % 0.0 in 220.0 W/m2 CLR
15:49 10.6 °F 0.8 °F 1016.1 in North 22.2 mph 22.2 mph 51 % 0.0 in 186.0 W/m2 CLR
15:54 10.6 °F 0.8 °F 1016.1 in NNW 29.6 mph 29.6 mph 51 % 0.0 in 179.0 W/m2 CLR
15:59 10.6 °F 0.6 °F 1015.8 in NW 29.6 mph 29.6 mph 50 % 0.0 in 155.0 W/m2 CLR
16:04 10.6 °F 0.6 °F 1015.8 in NW 20.4 mph 20.4 mph 50 % 0.0 in 141.0 W/m2 CLR
16:09 10.6 °F 0.3 °F 1015.8 in NNW 27.8 mph 27.8 mph 49 % 0.0 in 153.0 W/m2 CLR
16:14 10.6 °F 0.8 °F 1015.5 in NNW 35.2 mph 35.2 mph 51 % 0.0 in 167.0 W/m2 CLR
16:19 10.6 °F 0.6 °F 1015.5 in North 35.4 mph 35.4 mph 50 % 0.0 in 185.0 W/m2 CLR
16:24 10.6 °F 0.8 °F 1015.5 in NNW 27.8 mph 27.8 mph 51 % 0.0 in 121.0 W/m2 CLR
16:29 10.6 °F 0.6 °F 1015.5 in NW 31.5 mph 31.5 mph 50 % 0.0 in 144.0 W/m2 CLR
16:34 10.6 °F 0.6 °F 1015.5 in NNW 24.1 mph 24.1 mph 50 % 0.0 in 151.0 W/m2 CLR
16:39 10.6 °F 0.8 °F 1015.5 in North 24.1 mph 24.1 mph 51 % 0.0 in 111.0 W/m2 CLR
16:44 10.6 °F 0.8 °F 1015.5 in WNW 16.7 mph 16.7 mph 51 % 0.0 in 174.0 W/m2 CLR
16:49 10.6 °F 0.6 °F 1015.5 in NW 24.1 mph 24.1 mph 50 % 0.0 in 260.0 W/m2 CLR
16:54 10.6 °F 0.6 °F 1015.5 in NW 31.5 mph 31.5 mph 50 % 0.0 in 174.0 W/m2 CLR
16:59 10.6 °F 0.8 °F 1015.5 in West 27.8 mph 27.8 mph 51 % 0.0 in 193.0 W/m2 CLR
17:04 10.6 °F 0.6 °F 1015.5 in NNW 27.8 mph 27.8 mph 50 % 0.0 in 91.0 W/m2 CLR
17:09 10.0 °F 0.3 °F 1015.5 in NW 35.2 mph 35.2 mph 51 % 0.0 in 134.0 W/m2 FEW
17:14 10.6 °F 1.1 °F 1015.5 in NW 25.9 mph 25.9 mph 52 % 0.0 in 70.0 W/m2 CLR
17:19 10.0 °F 0.3 °F 1015.5 in NW 31.5 mph 31.5 mph 51 % 0.0 in 58.0 W/m2 SCT
17:24 10.0 °F 0.3 °F 1015.5 in NW 37.0 mph 37.0 mph 51 % 0.0 in 32.0 W/m2 BKN
17:29 10.0 °F 0.6 °F 1015.1 in NW 22.2 mph 22.2 mph 52 % 0.0 in 16.0 W/m2 BKN
17:34 10.0 °F 0.6 °F 1015.1 in NW 31.5 mph 31.5 mph 52 % 0.0 in 23.0 W/m2 BKN
17:39 9.4 °F 0.1 °F 1015.1 in NW 20.4 mph 20.4 mph 52 % 0.0 in 37.0 W/m2 BKN
17:44 9.4 °F 0.3 °F 1015.1 in NNW 25.9 mph 25.9 mph 53 % 0.0 in 35.0 W/m2 BKN
17:49 9.4 °F 0.1 °F 1015.1 in NW 18.5 mph 18.5 mph 52 % 0.0 in 30.0 W/m2 BKN
17:54 9.4 °F 0.3 °F 1015.1 in NW 20.4 mph 20.4 mph 53 % 0.0 in 18.0 W/m2 BKN
17:59 9.4 °F 0.3 °F 1015.1 in NW 20.4 mph 20.4 mph 53 % 0.0 in 14.0 W/m2 BKN
18:04 9.4 °F 0.3 °F 1015.1 in NW 22.2 mph 22.2 mph 53 % 0.0 in 11.0 W/m2 BKN
18:09 9.4 °F 0.3 °F 1015.1 in NW 22.2 mph 22.2 mph 53 % 0.0 in 5.0 W/m2 OVC
18:14 9.4 °F 0.3 °F 1015.1 in WNW 14.8 mph 14.8 mph 53 % 0.0 in 0.0 W/m2 OVC
18:19 9.4 °F 0.3 °F 1015.1 in WNW 13.0 mph 13.0 mph 53 % 0.0 in 0.0 W/m2 OVC
18:24 9.4 °F 0.3 °F 1015.1 in WNW 18.5 mph 18.5 mph 53 % 0.0 in 0.0 W/m2 OVC
18:29 9.4 °F 0.6 °F 1015.1 in NW 14.8 mph 14.8 mph 54 % 0.0 in 0.0 W/m2 CLR
18:34 8.9 °F 0.1 °F 1015.1 in NW 16.7 mph 16.7 mph 54 % 0.0 in 0.0 W/m2 CLR
18:39 8.9 °F 0.1 °F 1015.1 in NW 13.0 mph 13.0 mph 54 % 0.0 in 0.0 W/m2 CLR
18:44 8.9 °F 0.3 °F 1015.1 in NW 16.7 mph 16.7 mph 55 % 0.0 in 0.0 W/m2 CLR
18:49 8.9 °F 0.3 °F 1015.1 in NW 18.5 mph 18.5 mph 55 % 0.0 in 0.0 W/m2 CLR
18:54 8.9 °F 0.3 °F 1015.1 in NNW 19.3 mph 19.3 mph 55 % 0.0 in 0.0 W/m2 CLR
18:59 8.9 °F 0.3 °F 1015.1 in NNW 16.7 mph 16.7 mph 55 % 0.0 in 0.0 W/m2 CLR
19:04 9.4 °F 1.1 °F 1015.1 in NW 18.5 mph 18.5 mph 56 % 0.0 in 0.0 W/m2 CLR
19:09 9.4 °F 1.1 °F 1015.1 in NW 20.4 mph 20.4 mph 56 % 0.0 in 0.0 W/m2 CLR
19:14 9.4 °F 1.3 °F 1015.1 in NNW 17.7 mph 17.7 mph 57 % 0.0 in 0.0 W/m2 CLR
19:19 9.4 °F 1.3 °F 1015.1 in North 20.4 mph 20.4 mph 57 % 0.0 in 0.0 W/m2 CLR
19:24 9.4 °F 1.6 °F 1015.1 in North 24.1 mph 24.1 mph 58 % 0.0 in 0.0 W/m2 CLR
19:29 9.4 °F 1.3 °F 1015.1 in NW 25.9 mph 25.9 mph 57 % 0.0 in 0.0 W/m2 CLR
19:34 9.4 °F 1.1 °F 1015.1 in NNW 24.1 mph 24.1 mph 56 % 0.0 in 0.0 W/m2 CLR
19:39 9.4 °F 1.1 °F 1015.1 in NNW 22.2 mph 22.2 mph 56 % 0.0 in 0.0 W/m2 CLR
19:44 9.4 °F 1.3 °F 1015.1 in NNW 24.1 mph 24.1 mph 57 % 0.0 in 0.0 W/m2 CLR
19:49 9.4 °F 1.6 °F 1015.1 in NW 16.7 mph 16.7 mph 58 % 0.0 in 0.0 W/m2 CLR
19:54 9.4 °F 1.3 °F 1015.1 in NNW 14.8 mph 14.8 mph 57 % 0.0 in 0.0 W/m2 CLR
19:59 8.9 °F 1.3 °F 1015.1 in North 18.5 mph 18.5 mph 59 % 0.0 in 0.0 W/m2 CLR
20:05 8.9 °F 1.3 °F 1015.1 in NNW 22.2 mph 22.2 mph 59 % 0.0 in 0.0 W/m2 CLR
20:10 8.9 °F 1.6 °F 1015.1 in North 31.5 mph 31.5 mph 60 % 0.0 in 0.0 W/m2 CLR
20:15 8.9 °F 1.8 °F 1015.5 in NNW 24.1 mph 24.1 mph 61 % 0.0 in 0.0 W/m2 CLR
20:20 8.9 °F 2.0 °F 1015.5 in NW 25.9 mph 25.9 mph 62 % 0.0 in 0.0 W/m2 CLR
20:25 8.9 °F 2.0 °F 1015.1 in NNE 18.5 mph 18.5 mph 62 % 0.0 in 0.0 W/m2 CLR
20:30 8.3 °F 1.7 °F 1015.1 in NW 22.2 mph 22.2 mph 63 % 0.0 in 0.0 W/m2 CLR
20:35 8.3 °F 1.7 °F 1015.1 in NW 20.4 mph 20.4 mph 63 % 0.0 in 0.0 W/m2 CLR
20:40 8.3 °F 1.7 °F 1015.1 in NNW 22.2 mph 22.2 mph 63 % 0.0 in 0.0 W/m2 CLR
20:45 8.3 °F 1.7 °F 1015.1 in NW 12.9 mph 12.9 mph 63 % 0.0 in 0.0 W/m2 CLR
20:50 8.3 °F 1.7 °F 1015.5 in NW 18.5 mph 18.5 mph 63 % 0.0 in 0.0 W/m2 CLR
20:55 8.3 °F 1.7 °F 1015.1 in NW 16.7 mph 16.7 mph 63 % 0.0 in 0.0 W/m2 CLR
21:00 8.3 °F 1.7 °F 1015.1 in NW 14.8 mph 14.8 mph 63 % 0.0 in 0.0 W/m2 CLR
21:05 8.3 °F 1.7 °F 1015.5 in NW 14.8 mph 14.8 mph 63 % 0.0 in 0.0 W/m2 CLR
21:10 8.3 °F 1.7 °F 1015.1 in NW 18.5 mph 18.5 mph 63 % 0.0 in 0.0 W/m2 CLR
21:15 7.8 °F 1.2 °F 1015.1 in NNW 16.7 mph 16.9 mph 63 % 0.0 in 0.0 W/m2 CLR
21:20 7.8 °F 1.2 °F 1015.1 in NW 20.4 mph 20.4 mph 63 % 0.0 in 0.0 W/m2 CLR
21:25 7.8 °F 1.2 °F 1015.1 in NW 22.2 mph 22.2 mph 63 % 0.0 in 0.0 W/m2 CLR
21:30 7.8 °F 1.2 °F 1015.1 in NW 27.8 mph 27.8 mph 63 % 0.0 in 0.0 W/m2 CLR
21:35 8.3 °F 1.4 °F 1014.8 in NW 22.2 mph 22.2 mph 62 % 0.0 in 0.0 W/m2 CLR
21:40 7.8 °F 1.2 °F 1014.8 in NNW 29.6 mph 29.6 mph 63 % 0.0 in 0.0 W/m2 CLR
21:45 7.8 °F 1.2 °F 1014.8 in NW 20.4 mph 20.4 mph 63 % 0.0 in 0.0 W/m2 CLR
21:50 7.8 °F 1.2 °F 1014.8 in NW 17.7 mph 17.7 mph 63 % 0.0 in 0.0 W/m2 CLR
21:55 7.8 °F 1.2 °F 1014.8 in WNW 18.5 mph 18.5 mph 63 % 0.0 in 0.0 W/m2 CLR
22:00 7.8 °F 1.2 °F 1014.8 in WNW 22.2 mph 22.2 mph 63 % 0.0 in 0.0 W/m2 CLR
22:05 7.8 °F 1.2 °F 1014.8 in WNW 20.4 mph 20.4 mph 63 % 0.0 in 0.0 W/m2 CLR
22:10 7.2 °F 0.7 °F 1014.8 in WNW 18.5 mph 18.5 mph 63 % 0.0 in 0.0 W/m2 CLR
22:15 7.2 °F 0.8 °F 1014.8 in NW 20.4 mph 20.4 mph 64 % 0.0 in 0.0 W/m2 CLR
22:20 6.7 °F 0.3 °F 1014.8 in WNW 14.5 mph 14.5 mph 64 % 0.0 in 0.0 W/m2 CLR
22:25 6.7 °F 0.6 °F 1014.8 in WNW 25.9 mph 25.9 mph 65 % 0.0 in 0.0 W/m2 CLR
22:30 6.7 °F 0.6 °F 1014.8 in WNW 13.0 mph 13.0 mph 65 % 0.0 in 0.0 W/m2 CLR
22:35 6.1 °F 0.0 °F 1014.8 in NW 9.7 mph 9.7 mph 65 % 0.0 in 0.0 W/m2 CLR
22:40 6.1 °F 0.0 °F 1014.8 in WNW 9.3 mph 9.3 mph 65 % 0.0 in 0.0 W/m2 CLR
22:45 5.6 °F -0.3 °F 1014.8 in NW 9.7 mph 9.7 mph 66 % 0.0 in 0.0 W/m2 CLR
22:50 5.6 °F -0.3 °F 1014.8 in WNW 14.8 mph 14.8 mph 66 % 0.0 in 0.0 W/m2 CLR
22:55 5.6 °F -0.3 °F 1014.8 in WNW 16.7 mph 16.7 mph 66 % 0.0 in 0.0 W/m2 CLR
23:00 5.6 °F -0.1 °F 1014.8 in WNW 14.8 mph 14.8 mph 67 % 0.0 in 0.0 W/m2 CLR
23:05 5.6 °F -0.1 °F 1014.8 in WNW 16.7 mph 16.7 mph 67 % 0.0 in 0.0 W/m2 CLR
23:10 5.6 °F -0.1 °F 1014.8 in WNW 18.5 mph 18.5 mph 67 % 0.0 in 0.0 W/m2 CLR
23:15 5.6 °F -0.1 °F 1014.8 in NW 18.5 mph 18.5 mph 67 % 0.0 in 0.0 W/m2 CLR
23:20 5.6 °F -0.1 °F 1014.8 in NW 22.2 mph 22.2 mph 67 % 0.0 in 0.0 W/m2 CLR
23:25 5.6 °F -0.1 °F 1014.8 in NW 18.5 mph 18.5 mph 67 % 0.0 in 0.0 W/m2 CLR
23:30 6.1 °F 0.4 °F 1014.8 in NW 19.3 mph 19.3 mph 67 % 0.0 in 0.0 W/m2 CLR
23:35 6.7 °F 0.9 °F 1014.8 in NNW 22.2 mph 22.2 mph 67 % 0.0 in 0.0 W/m2 CLR
23:40 6.7 °F 0.9 °F 1015.1 in NW 22.2 mph 22.2 mph 67 % 0.0 in 0.0 W/m2 CLR
23:45 6.7 °F 1.2 °F 1015.1 in NNW 22.5 mph 22.5 mph 68 % 0.0 in 0.0 W/m2 CLR
23:50 6.7 °F 1.2 °F 1015.1 in NW 24.1 mph 24.1 mph 68 % 0.0 in 0.0 W/m2 CLR
23:55 6.7 °F 1.4 °F 1015.1 in NNW 24.1 mph 24.1 mph 69 % 0.0 in 0.0 W/m2 CLR
Lo Temps de Massalio
Compliments of Weather Underground - 1.25 mb